Terminal Aerodrome Forecast
Issued by NWS Upton, NY

Current Version | Previous Version | Text Only | Print | Product List | Glossary On
Versions: 1 2 3 4 5 6 7 8 9 10 11 12 13 14 15 16 17 18 19 20 21 22 23 24 25 26 27 28 29 30 31 32 33 34 35 36
000
FTUS41 KOKX 250500
TAFJFK
TAF
KJFK 250539Z 2506/2612 31007KT P6SM SCT250
     FM251300 29011KT P6SM SKC
     FM251800 25013G20KT P6SM SCT050
     FM252300 26015KT P6SM BKN050=

USA.gov is the U.S. government's official web portal to all federal, state and local government web resources and services.